Time;durP1;ratioP1;P1;durP2;ratioP2;P2;SDS_P1;SDS_P2;PMS_P1;PMS_P2;Temp;Humidity;BMP_temperature;BMP_pressure;BME280_temperature;BME280_humidity;BME280_pressure;Samples;Min_cycle;Max_cycle;Signal;HPM_P1;HPM_P2
2021/06/27 00:02:23;;;;;;;18.07;16.20;;;;;;;18.49;71.29;100483.97;2012558;88;28764;-59
2021/06/27 00:05:29;;;;;;;22.50;16.67;;;;;;;18.49;71.31;100485.84;2012554;88;31919;-59
2021/06/27 00:08:31;;;;;;;22.93;17.73;;;;;;;18.47;71.35;100485.09;2012282;88;33163;-60
2021/06/27 00:11:34;;;;;;;19.17;17.10;;;;;;;18.47;71.37;100491.88;2012653;88;29345;-64
2021/06/27 00:14:37;;;;;;;18.65;16.25;;;;;;;18.46;71.37;100488.28;2012658;88;27706;-59
2021/06/27 00:17:39;;;;;;;19.05;16.42;;;;;;;18.44;71.42;100492.99;2012585;88;28779;-58
2021/06/27 00:20:43;;;;;;;18.42;15.98;;;;;;;18.42;71.55;100490.89;2012528;88;31102;-58
2021/06/27 00:23:48;;;;;;;18.65;16.82;;;;;;;18.42;71.58;100490.02;2012521;88;33040;-59
2021/06/27 00:26:53;;;;;;;17.65;15.85;;;;;;;18.41;71.65;100495.06;2012570;88;29398;-59
2021/06/27 00:29:54;;;;;;;;;;;;;;;18.41;71.77;100493.71;2015047;88;27568;-59
2021/06/27 00:32:57;;;;;;;17.75;15.90;;;;;;;18.40;71.85;100489.27;2012594;88;29490;-58
2021/06/27 00:35:59;;;;;;;24.00;17.05;;;;;;;18.36;71.86;100490.89;2012669;88;31123;-59
2021/06/27 00:39:00;;;;;;;18.17;16.10;;;;;;;18.36;71.93;100490.89;2012500;88;32940;-59
2021/06/27 00:42:03;;;;;;;16.90;14.95;;;;;;;18.37;71.96;100491.74;2012578;88;30180;-58
2021/06/27 00:45:08;;;;;;;17.55;14.60;;;;;;;18.37;71.99;100499.38;2018913;88;27884;-59
2021/06/27 00:48:10;;;;;;;17.60;15.75;;;;;;;18.40;72.05;100502.83;2020665;88;28791;-59
2021/06/27 00:51:12;;;;;;;18.85;15.80;;;;;;;18.40;72.05;100505.06;2020504;87;31060;-59
2021/06/27 00:54:14;;;;;;;18.55;15.60;;;;;;;18.42;72.04;100506.29;2020209;88;33179;-58
2021/06/27 00:57:16;;;;;;;19.80;15.90;;;;;;;18.42;72.11;100500.39;2020514;88;30189;-58
2021/06/27 01:00:23;;;;;;;22.27;15.88;;;;;;;18.42;72.04;100500.86;2020671;88;27565;-58
2021/06/27 01:03:25;;;;;;;17.45;15.30;;;;;;;18.42;72.05;100492.25;2020699;88;28751;-58
2021/06/27 01:06:26;;;;;;;16.77;14.70;;;;;;;18.43;72.13;100496.69;2020530;88;31127;-58
2021/06/27 01:09:28;;;;;;;20.80;14.68;;;;;;;18.42;72.13;100494.96;2020463;88;33784;-58
2021/06/27 01:12:30;;;;;;;16.73;14.95;;;;;;;18.40;72.05;100490.63;2020549;88;29606;-59
2021/06/27 01:15:32;;;;;;;16.25;14.55;;;;;;;18.40;72.05;100491.50;2020632;88;27793;-59
2021/06/27 01:18:33;;;;;;;17.77;14.83;;;;;;;18.40;72.02;100491.98;2020544;88;28726;-59
2021/06/27 01:21:36;;;;;;;17.45;15.63;;;;;;;18.38;72.12;100486.19;2020511;88;31115;-60
2021/06/27 01:24:38;;;;;;;16.73;14.87;;;;;;;18.36;72.01;100486.83;2020508;88;33782;-58
2021/06/27 01:27:40;;;;;;;16.48;14.15;;;;;;;18.34;72.02;100492.86;2020533;88;29382;-61
2021/06/27 01:30:42;;;;;;;18.00;15.00;;;;;;;18.32;72.01;100498.02;2020565;88;27521;-58
2021/06/27 01:33:48;;;;;;;17.77;14.98;;;;;;;18.30;72.06;100497.27;2020653;88;28772;-58
2021/06/27 01:36:51;;;;;;;20.85;16.07;;;;;;;18.25;72.04;100490.02;2020331;87;31306;-59
2021/06/27 01:39:52;;;;;;;18.45;15.63;;;;;;;18.20;72.08;100487.16;2020635;88;33963;-58
2021/06/27 01:43:11;;;;;;;21.20;15.90;;;;;;;18.16;72.02;100476.18;2020696;88;29400;-58
2021/06/27 01:46:13;;;;;;;19.65;15.32;;;;;;;18.11;72.03;100478.41;2020493;88;27558;-58
2021/06/27 01:49:15;;;;;;;17.45;15.38;;;;;;;18.05;72.04;100477.02;2020659;88;28800;-58
2021/06/27 01:52:16;;;;;;;19.05;15.35;;;;;;;17.98;72.02;100478.98;2020648;88;31833;-58
2021/06/27 01:55:18;;;;;;;20.27;16.48;;;;;;;17.90;72.03;100467.34;2020610;88;33031;-59
2021/06/27 01:58:20;;;;;;;19.17;16.20;;;;;;;17.83;72.09;100467.47;2020670;88;29383;-58
2021/06/27 02:01:27;;;;;;;17.07;15.23;;;;;;;17.60;72.14;100446.59;2020723;88;27552;-58
2021/06/27 02:04:29;;;;;;;23.62;15.85;;;;;;;17.59;71.83;100464.30;2020004;87;28644;-58
2021/06/27 02:07:31;;;;;;;17.50;15.18;;;;;;;17.59;71.83;100464.30;2020610;88;31134;-58
2021/06/27 02:10:32;;;;;;;17.32;15.43;;;;;;;17.52;72.01;100470.69;2020551;88;33749;-59
2021/06/27 02:13:35;;;;;;;17.90;15.95;;;;;;;17.45;72.29;100468.09;2020361;88;30112;-59
2021/06/27 02:16:37;;;;;;;16.60;14.90;;;;;;;17.39;72.33;100467.19;2020725;88;27617;-59
2021/06/27 02:19:39;;;;;;;18.40;16.00;;;;;;;17.34;72.46;100472.08;2020628;88;29657;-59
2021/06/27 02:22:41;;;;;;;19.90;15.88;;;;;;;17.07;72.45;100448.31;2020633;88;31886;-59
2021/06/27 02:25:44;;;;;;;17.48;15.70;;;;;;;17.07;72.45;100448.31;2020596;88;33972;-59
2021/06/27 02:28:46;;;;;;;20.30;16.93;;;;;;;17.15;72.61;100471.63;2020651;88;29440;-59
2021/06/27 02:31:49;;;;;;;18.50;15.90;;;;;;;17.09;72.55;100478.84;2020713;87;27581;-59
2021/06/27 02:34:51;;;;;;;20.70;16.42;;;;;;;17.03;72.71;100470.32;2020640;88;28611;-59
2021/06/27 02:37:53;;;;;;;20.50;16.25;;;;;;;16.98;72.84;100477.44;2020639;88;31022;-59
2021/06/27 02:40:55;;;;;;;18.80;15.95;;;;;;;16.88;72.99;100472.30;2020619;87;33038;-60
2021/06/27 02:43:57;;;;;;;19.90;15.10;;;;;;;16.88;72.99;100472.30;2018952;87;30113;-60
2021/06/27 02:46:58;;;;;;;18.23;16.00;;;;;;;16.84;73.13;100483.81;2012730;88;27493;-60
2021/06/27 02:50:00;;;;;;;18.17;16.10;;;;;;;16.76;73.43;100472.70;2012598;88;28770;-60
2021/06/27 02:53:03;;;;;;;18.48;15.25;;;;;;;16.60;73.40;100450.84;2012605;88;32082;-61
2021/06/27 02:56:08;;;;;;;20.08;16.82;;;;;;;16.60;73.40;100450.84;2012575;88;33809;-60
2021/06/27 02:59:10;;;;;;;24.60;16.93;;;;;;;16.72;73.89;100476.10;2012615;88;30137;-61
2021/06/27 03:02:12;;;;;;;18.95;16.52;;;;;;;16.70;73.65;100472.67;2012696;88;27505;-61
2021/06/27 03:05:15;;;;;;;21.52;17.27;;;;;;;16.70;73.79;100470.81;2012719;88;28628;-60
2021/06/27 03:08:17;;;;;;;20.52;17.20;;;;;;;16.69;73.89;100472.30;2012401;88;31216;-60
2021/06/27 03:11:19;;;;;;;19.40;17.30;;;;;;;16.62;74.06;100448.00;2012272;88;33017;-60
2021/06/27 03:14:20;;;;;;;20.68;17.07;;;;;;;16.74;74.14;100461.98;2012608;88;30174;-61
2021/06/27 03:17:22;;;;;;;19.02;16.95;;;;;;;16.67;74.23;100443.13;2012693;88;27620;-60
2021/06/27 03:20:24;;;;;;;21.68;17.52;;;;;;;16.85;74.30;100460.72;2012735;88;28636;-60
2021/06/27 03:23:26;;;;;;;24.37;17.87;;;;;;;16.92;74.35;100464.31;2012584;88;31185;-60
2021/06/27 03:26:28;;;;;;;20.40;17.20;;;;;;;16.95;74.28;100463.66;2012549;88;32996;-60
2021/06/27 03:29:30;;;;;;;19.42;17.32;;;;;;;17.00;74.29;100461.45;2012587;88;29312;-60
2021/06/27 03:32:33;;;;;;;20.37;17.45;;;;;;;17.06;74.29;100453.86;2012643;88;27561;-60
2021/06/27 03:35:35;;;;;;;22.20;16.60;;;;;;;17.12;74.26;100452.05;2012687;88;28761;-60
2021/06/27 03:42:00;;;;;;;21.55;17.02;;;;;;;17.28;74.41;100456.69;2012538;88;33014;-61
2021/06/27 03:45:02;;;;;;;19.42;16.45;;;;;;;17.38;74.20;100453.27;2012372;88;29576;-60
2021/06/27 03:48:06;;;;;;;19.35;17.00;;;;;;;17.49;74.20;100444.33;2012659;88;27588;-60
2021/06/27 03:51:07;;;;;;;20.10;16.67;;;;;;;17.57;74.06;100444.12;2012653;88;28768;-60
2021/06/27 03:54:10;;;;;;;20.02;16.93;;;;;;;17.66;73.95;100442.55;2012548;88;31045;-60
2021/06/27 03:57:12;;;;;;;19.70;17.05;;;;;;;17.83;73.88;100437.66;2012513;88;33208;-69
2021/06/27 04:00:16;;;;;;;22.15;17.35;;;;;;;17.83;73.88;100437.66;2012577;88;29368;-70
2021/06/27 04:03:18;;;;;;;20.35;17.45;;;;;;;17.92;73.76;100449.12;2012775;88;27589;-59
2021/06/27 04:06:28;;;;;;;19.52;16.65;;;;;;;18.01;73.66;100455.23;2008386;88;28639;-67
2021/06/27 04:09:58;;;;;;;18.60;16.45;;;;;;;18.10;73.56;100445.50;2044144;87;31088;-61
2021/06/27 04:15:55;;;;;;;21.87;16.65;;;;;;;18.34;73.36;100445.88;2095018;83;27491;-68
2021/06/27 04:18:56;;;;;;;23.38;17.42;;;;;;;18.45;73.17;100453.16;2145094;83;27567;-62
2021/06/27 04:22:22;;;;;;;21.42;16.65;;;;;;;18.59;73.08;100452.05;2143115;83;29531;-61
2021/06/27 04:25:50;;;;;;;22.00;17.35;;;;;;;18.68;72.75;100452.16;2084150;79;27931;-63
2021/06/27 04:28:59;;;;;;;19.02;16.87;;;;;;;18.79;72.76;100450.41;2055643;85;29693;-60
2021/06/27 04:32:33;;;;;;;23.35;16.35;;;;;;;18.95;72.75;100446.83;2077570;84;27569;-58
2021/06/27 04:35:21;;;;;;;20.75;17.42;;;;;;;19.07;72.26;100447.67;2036892;86;27524;-72
2021/06/27 04:38:25;;;;;;;24.02;16.42;;;;;;;19.22;72.26;100456.38;2062573;86;27560;-57
2021/06/27 04:41:29;;;;;;;21.90;16.17;;;;;;;19.41;72.12;100449.39;2062389;86;31046;-57
2021/06/27 04:44:32;;;;;;;21.17;16.00;;;;;;;19.62;71.83;100457.56;2062048;86;32978;-57
2021/06/27 04:47:35;;;;;;;17.50;14.98;;;;;;;19.74;71.52;100455.17;2062137;85;29449;-62
2021/06/27 04:50:38;;;;;;;18.27;15.80;;;;;;;20.07;71.76;100464.63;2062939;86;27793;-60
2021/06/27 04:53:41;;;;;;;17.50;15.80;;;;;;;20.80;71.59;100467.77;2062901;85;28672;-67
2021/06/27 04:56:44;;;;;;;19.87;15.55;;;;;;;21.58;70.60;100468.91;2062997;86;27698;-56
2021/06/27 04:59:47;;;;;;;23.27;14.50;;;;;;;22.33;69.60;100456.79;2062825;86;33032;-57
2021/06/27 05:02:49;;;;;;;17.80;15.85;;;;;;;23.05;68.60;100456.16;2062860;85;29371;-68
2021/06/27 05:05:52;;;;;;;18.95;13.70;;;;;;;23.83;67.84;100457.44;2062904;86;27815;-58
2021/06/27 05:08:54;;;;;;;18.67;13.85;;;;;;;24.64;66.65;100466.84;2063030;85;29633;-57
2021/06/27 05:11:56;;;;;;;16.20;13.75;;;;;;;25.37;64.85;100459.91;2063004;85;30870;-57
2021/06/27 05:14:58;;;;;;;14.75;13.25;;;;;;;26.04;64.02;100466.27;2063007;86;33563;-71
2021/06/27 05:18:01;;;;;;;14.30;12.80;;;;;;;26.65;62.13;100467.16;2063163;86;29462;-68
2021/06/27 05:21:03;;;;;;;15.20;13.10;;;;;;;26.66;60.42;100462.88;2063125;86;27551;-58
2021/06/27 05:24:06;;;;;;;14.25;12.40;;;;;;;26.50;60.09;100462.94;2063041;85;29379;-70
2021/06/27 05:27:12;;;;;;;14.33;12.45;;;;;;;26.46;59.57;100468.44;2072155;85;31093;-57
2021/06/27 05:30:17;;;;;;;14.10;12.65;;;;;;;26.21;58.99;100471.27;2146420;82;33922;-58
2021/06/27 05:34:13;;;;;;;;;;;;;;;25.99;58.75;100477.78;2159952;82;29316;-57
2021/06/27 05:36:38;;;;;;;16.12;12.25;;;;;;;25.66;58.08;100479.66;2097237;82;27770;-61
2021/06/27 05:39:42;;;;;;;14.43;12.93;;;;;;;25.23;57.63;100483.35;2157867;82;28684;-57
2021/06/27 05:42:46;;;;;;;16.02;13.85;;;;;;;24.73;57.87;100484.56;2157792;82;32008;-60
2021/06/27 05:45:50;;;;;;;14.80;13.40;;;;;;;24.37;57.96;100479.20;2157759;82;32955;-57
2021/06/27 05:48:52;;;;;;;15.68;14.03;;;;;;;24.05;57.92;100482.08;2157934;82;30176;-56
2021/06/27 05:51:56;;;;;;;15.78;14.07;;;;;;;23.83;58.38;100475.22;2157734;82;27580;-59
2021/06/27 05:55:02;;;;;;;15.10;13.55;;;;;;;24.23;59.00;100479.81;2157680;82;27514;-59
2021/06/27 05:58:06;;;;;;;14.63;13.13;;;;;;;25.09;58.96;100478.00;2005268;88;28294;-57
2021/06/27 06:01:11;;;;;;;13.58;12.28;;;;;;;26.04;57.59;100475.88;2005249;88;32113;-56
2021/06/27 06:04:13;;;;;;;12.73;11.43;;;;;;;26.75;55.96;100472.45;2005514;88;29587;-57
2021/06/27 06:07:15;;;;;;;13.28;11.97;;;;;;;27.38;55.27;100477.47;2005365;88;27669;-61
2021/06/27 06:10:17;;;;;;;12.00;10.90;;;;;;;27.94;54.37;100478.25;2005258;88;28687;-56
2021/06/27 06:13:19;;;;;;;11.43;9.75;;;;;;;28.57;53.71;100477.97;2005102;88;31100;-57
2021/06/27 06:16:21;;;;;;;11.25;10.13;;;;;;;29.05;52.19;100472.05;2005371;88;32956;-56
2021/06/27 06:19:24;;;;;;;11.43;9.95;;;;;;;29.52;50.91;100469.84;2005227;88;30107;-73
2021/06/27 06:22:27;;;;;;;11.78;10.40;;;;;;;30.02;50.55;100465.72;2005513;88;27614;-73
2021/06/27 06:25:29;;;;;;;15.35;10.05;;;;;;;30.46;49.43;100471.43;2002149;88;28621;-59
2021/06/27 06:28:33;;;;;;;11.00;9.88;;;;;;;30.88;48.07;100470.08;1996804;88;31171;-57
2021/06/27 06:31:36;;;;;;;10.13;9.13;;;;;;;31.14;47.28;100468.52;1996844;88;32986;-68
2021/06/27 06:34:39;;;;;;;10.65;9.43;;;;;;;31.45;46.67;100465.70;1996687;88;30580;-57
2021/06/27 06:37:43;;;;;;;9.50;8.60;;;;;;;32.02;46.33;100468.09;1996766;88;27666;-58
2021/06/27 06:40:45;;;;;;;9.08;8.28;;;;;;;32.45;44.55;100464.55;1996836;88;28616;-58
2021/06/27 06:43:47;;;;;;;9.08;8.00;;;;;;;32.76;43.54;100462.43;1996792;88;31144;-57
2021/06/27 06:46:49;;;;;;;8.80;7.90;;;;;;;32.95;42.71;100462.05;1996573;88;33040;-71
2021/06/27 06:49:51;;;;;;;8.30;7.55;;;;;;;33.07;42.00;100462.20;1996526;88;29275;-71
2021/06/27 06:52:53;;;;;;;8.93;8.08;;;;;;;33.40;41.92;100456.16;1996608;88;27623;-60
2021/06/27 06:55:57;;;;;;;7.87;7.08;;;;;;;33.69;40.48;100453.80;1996561;88;28686;-60
2021/06/27 06:58:58;;;;;;;12.98;7.85;;;;;;;33.90;39.25;100455.38;1996602;88;31989;-58
2021/06/27 07:02:00;;;;;;;7.95;7.25;;;;;;;34.08;39.31;100451.78;2090081;84;32950;-58
2021/06/27 07:05:03;;;;;;;8.38;7.58;;;;;;;34.01;38.92;100457.93;2114703;84;30317;-57
2021/06/27 07:08:06;;;;;;;10.75;8.00;;;;;;;33.77;38.42;100462.70;2114925;84;27544;-57
2021/06/27 07:11:08;;;;;;;7.30;6.50;;;;;;;33.39;38.00;100461.39;2114683;84;28637;-57
2021/06/27 07:14:10;;;;;;;10.98;7.60;;;;;;;33.11;37.65;100457.05;2114337;84;31067;-58
2021/06/27 07:17:12;;;;;;;7.87;7.17;;;;;;;33.02;37.63;100464.23;2114620;84;33023;-58
2021/06/27 07:20:14;;;;;;;7.85;6.62;;;;;;;32.71;37.23;100457.52;2114706;84;29300;-66
2021/06/27 07:23:16;;;;;;;8.20;7.40;;;;;;;32.43;37.69;100461.45;2114783;84;27575;-65
2021/06/27 07:26:17;;;;;;;7.47;6.83;;;;;;;32.50;37.71;100459.20;2138719;82;28675;-61
2021/06/27 07:29:19;;;;;;;7.28;6.67;;;;;;;32.65;36.41;100465.34;2163555;82;31034;-58
2021/06/27 07:32:21;;;;;;;10.53;6.60;;;;;;;32.75;36.92;100460.72;2163361;82;33223;-60
2021/06/27 07:35:23;;;;;;;7.85;7.15;;;;;;;33.13;36.95;100464.63;2163481;82;29314;-65
2021/06/27 07:38:24;;;;;;;7.80;6.92;;;;;;;33.39;36.63;100467.81;2163608;82;27560;-61
2021/06/27 07:41:26;;;;;;;10.00;6.47;;;;;;;33.55;35.65;100465.56;2163462;82;29541;-59
2021/06/27 07:44:28;;;;;;;6.87;6.28;;;;;;;33.70;36.68;100465.22;2163419;82;31940;-58
2021/06/27 07:47:30;;;;;;;6.78;5.78;;;;;;;34.16;36.27;100464.02;2163356;82;32995;-60
2021/06/27 07:50:31;;;;;;;7.00;6.08;;;;;;;34.48;35.25;100463.92;2163565;82;29392;-61
2021/06/27 07:53:33;;;;;;;7.90;4.78;;;;;;;34.90;34.72;100465.98;2163518;82;27706;-59
2021/06/27 07:56:35;;;;;;;4.92;4.50;;;;;;;35.10;33.41;100462.08;2163552;82;28695;-60
2021/06/27 07:59:36;;;;;;;4.70;4.33;;;;;;;35.21;32.47;100461.83;2163432;82;31075;-69
2021/06/27 08:02:38;;;;;;;4.95;4.22;;;;;;;35.28;31.96;100457.02;2163529;82;33096;-60
2021/06/27 08:05:41;;;;;;;4.83;4.10;;;;;;;35.36;30.73;100461.41;2163449;82;29483;-62
2021/06/27 08:08:43;;;;;;;5.50;5.05;;;;;;;35.28;30.84;100462.04;2163818;82;27429;-60
2021/06/27 08:11:45;;;;;;;7.05;5.10;;;;;;;35.39;30.58;100462.33;2163066;82;29729;-65
2021/06/27 08:14:46;;;;;;;4.40;4.00;;;;;;;35.44;30.70;100463.87;2163419;82;31983;-62
2021/06/27 08:17:51;;;;;;;4.08;3.77;;;;;;;35.58;29.49;100463.13;2163102;82;33183;-60
2021/06/27 08:20:52;;;;;;;4.78;4.28;;;;;;;35.61;29.44;100463.19;2163457;82;29729;-63
2021/06/27 08:23:54;;;;;;;4.78;4.37;;;;;;;35.48;29.30;100458.14;2163550;82;27707;-60
2021/06/27 08:26:56;;;;;;;4.87;4.40;;;;;;;35.29;29.01;100458.72;2157780;82;28623;-63
2021/06/27 08:29:58;;;;;;;5.70;4.60;;;;;;;35.11;28.83;100456.30;2154379;82;31151;-65
2021/06/27 08:33:00;;;;;;;5.37;4.22;;;;;;;34.86;28.66;100463.35;2154231;82;33068;-59
2021/06/27 08:36:02;;;;;;;5.42;4.90;;;;;;;34.81;28.99;100462.67;2154286;82;29288;-63
2021/06/27 08:39:06;;;;;;;6.10;5.10;;;;;;;34.93;28.88;100449.34;2154381;82;27529;-63
2021/06/27 08:42:08;;;;;;;5.35;4.83;;;;;;;34.97;28.99;100454.78;2154251;82;29813;-66
2021/06/27 08:45:12;;;;;;;6.40;4.87;;;;;;;34.76;28.97;100454.69;2154252;82;31092;-59
2021/06/27 08:48:18;;;;;;;5.53;4.62;;;;;;;34.74;29.13;100450.75;2139636;82;32698;-64
2021/06/27 08:51:20;;;;;;;5.97;4.67;;;;;;;34.66;28.19;100446.91;2099225;83;30192;-67
2021/06/27 08:54:22;;;;;;;6.87;6.03;;;;;;;34.49;28.83;100446.14;2118774;83;28070;-61
2021/06/27 08:57:23;;;;;;;10.20;6.05;;;;;;;34.32;29.23;100443.08;2116768;83;29886;-61
2021/06/27 09:00:25;;;;;;;6.37;4.47;;;;;;;34.19;29.48;100438.50;2106203;83;31058;-58
2021/06/27 09:03:27;;;;;;;6.17;5.60;;;;;;;33.96;29.54;100437.77;2116927;83;32567;-60
2021/06/27 09:06:40;;;;;;;11.85;5.10;;;;;;;33.86;29.25;100439.64;2117005;83;29438;-60
2021/06/27 09:09:38;;;;;;;6.10;5.42;;;;;;;33.83;30.31;100442.91;2115806;83;27541;-58
2021/06/27 09:12:55;;;;;;;5.72;5.20;;;;;;;33.88;30.03;100446.38;2116614;83;28765;-58
2021/06/27 09:15:58;;;;;;;8.20;5.80;;;;;;;33.47;30.12;100441.14;2113397;83;32887;-59
2021/06/27 09:19:03;;;;;;;7.97;6.22;;;;;;;32.87;30.63;100434.53;2107943;83;33906;-64
2021/06/27 09:22:13;;;;;;;6.28;5.62;;;;;;;32.30;30.28;100428.22;2116397;83;31714;-64
2021/06/27 09:25:26;;;;;;;6.08;5.58;;;;;;;31.67;31.14;100430.91;2112229;83;27699;-64
2021/06/27 09:28:47;;;;;;;5.53;4.97;;;;;;;31.17;31.61;100428.48;2125586;83;28667;-68
2021/06/27 09:31:49;;;;;;;6.60;5.42;;;;;;;31.10;32.36;100422.91;2120978;83;32043;-60
2021/06/27 09:34:52;;;;;;;9.15;5.92;;;;;;;31.05;32.15;100416.63;2125513;83;32956;-60
2021/06/27 09:37:53;;;;;;;6.00;5.28;;;;;;;30.95;31.70;100416.15;2125741;83;29467;-64
2021/06/27 09:41:05;;;;;;;5.87;4.80;;;;;;;30.69;32.40;100415.55;2116764;83;27537;-58
2021/06/27 09:44:09;;;;;;;7.85;6.42;;;;;;;30.63;32.72;100410.83;2123717;83;29440;-57
2021/06/27 09:47:12;;;;;;;4.60;4.20;;;;;;;30.58;32.39;100406.77;2112675;83;46259;-59
2021/06/27 09:50:29;;;;;;;5.12;4.72;;;;;;;30.44;32.65;100406.36;2123331;83;33109;-58
2021/06/27 09:53:38;;;;;;;5.20;4.80;;;;;;;30.51;32.84;100402.23;2124723;83;29368;-61
2021/06/27 09:56:41;;;;;;;4.50;4.10;;;;;;;30.55;32.52;100408.55;2125078;83;27571;-57
2021/06/27 09:59:43;;;;;;;4.37;3.98;;;;;;;30.43;32.18;100401.37;2119773;83;28711;-60
2021/06/27 10:06:11;;;;;;;5.67;4.15;;;;;;;29.95;32.10;100413.70;2044626;86;28039;-58
2021/06/27 10:09:18;;;;;;;6.35;4.35;;;;;;;29.58;32.11;100413.81;2048266;86;29363;-59
2021/06/27 10:12:20;;;;;;;5.00;4.58;;;;;;;29.28;32.40;100410.33;2021100;86;27607;-58
2021/06/27 10:15:22;;;;;;;5.55;4.00;;;;;;;29.15;33.55;100409.13;2028122;86;28708;-62
2021/06/27 10:18:23;;;;;;;5.10;4.08;;;;;;;29.19;32.65;100414.59;2027766;86;31109;-58
2021/06/27 10:21:27;;;;;;;5.55;4.25;;;;;;;29.12;33.15;100408.16;2024811;86;33034;-59
2021/06/27 10:24:30;;;;;;;10.68;3.87;;;;;;;29.17;33.19;100408.41;2030672;86;29491;-70
2021/06/27 10:27:33;;;;;;;4.60;4.20;;;;;;;29.02;32.58;100415.88;2024473;86;27617;-73
2021/06/27 10:30:35;;;;;;;6.70;4.03;;;;;;;28.75;32.96;100412.29;2001554;87;28870;-73
2021/06/27 10:33:37;;;;;;;9.30;8.30;;;;;;;28.52;33.20;100409.64;2013632;86;31019;-80
2021/06/27 10:36:42;;;;;;;8.33;7.45;;;;;;;28.26;33.32;100415.64;2029057;86;32919;-73
2021/06/27 10:40:08;;;;;;;7.87;4.47;;;;;;;28.00;33.15;100410.05;2023073;86;29309;-66
2021/06/27 10:43:10;;;;;;;6.50;4.37;;;;;;;27.83;33.76;100398.33;2022665;86;27462;-71
2021/06/27 10:46:15;;;;;;;6.40;4.15;;;;;;;27.61;33.25;100398.21;2035815;86;28865;-75
2021/06/27 10:49:36;;;;;;;5.28;4.20;;;;;;;27.44;33.54;100392.82;2027555;86;32300;-80
2021/06/27 10:52:59;;;;;;;4.30;3.92;;;;;;;27.40;33.58;100390.59;2028630;86;33002;-70
2021/06/27 10:56:01;;;;;;;4.47;3.52;;;;;;;27.31;33.58;100393.94;2030831;86;29410;-66
2021/06/27 10:59:03;;;;;;;4.33;4.03;;;;;;;27.28;34.51;100392.95;2029581;86;27595;-77
2021/06/27 11:02:38;;;;;;;4.50;3.95;;;;;;;27.26;34.32;100398.62;2030368;86;28626;-65
2021/06/27 11:05:41;;;;;;;5.42;3.87;;;;;;;27.22;34.50;100394.52;2040250;86;32067;-74
2021/06/27 11:08:48;;;;;;;4.25;3.70;;;;;;;27.25;35.31;100388.66;2031731;86;33093;-78
2021/06/27 11:11:54;;;;;;;5.62;4.62;;;;;;;27.30;35.44;100386.75;2042464;86;29368;-75
2021/06/27 11:15:15;;;;;;;4.33;3.83;;;;;;;27.29;34.96;100394.13;2046133;86;27754;-81
2021/06/27 11:18:42;;;;;;;5.72;4.10;;;;;;;27.28;33.93;100384.17;2033800;86;28740;-74
2021/06/27 11:21:44;;;;;;;8.78;8.00;;;;;;;27.14;34.03;100382.22;2037180;86;31050;-80
2021/06/27 11:24:47;;;;;;;4.47;4.08;;;;;;;27.07;33.99;100385.35;2032765;86;33830;-81
2021/06/27 11:27:49;;;;;;;4.08;3.62;;;;;;;27.04;34.34;100382.45;2003662;88;29459;-83
2021/06/27 11:31:15;;;;;;;5.45;4.15;;;;;;;27.03;34.79;100387.62;2019591;86;27520;-78
2021/06/27 11:34:28;;;;;;;3.85;3.50;;;;;;;27.05;34.75;100380.05;2022346;86;28603;-73
2021/06/27 11:37:40;;;;;;;3.90;3.60;;;;;;;27.05;34.86;100380.05;2034157;86;31009;-74
2021/06/27 11:40:48;;;;;;;6.30;3.80;;;;;;;27.09;35.11;100379.16;2034157;86;33069;-74
2021/06/27 11:44:03;;;;;;;3.80;3.50;;;;;;;27.10;35.10;100373.48;2037447;86;29407;-71
2021/06/27 11:47:23;;;;;;;4.25;3.85;;;;;;;27.08;35.45;100381.06;2001978;88;27538;-72
2021/06/27 11:50:34;;;;;;;4.37;4.08;;;;;;;27.07;35.09;100376.59;2031983;86;28726;-70
2021/06/27 11:53:36;;;;;;;5.05;3.87;;;;;;;27.06;35.02;100371.27;2019692;86;31014;-69
2021/06/27 11:57:06;;;;;;;6.03;4.58;;;;;;;27.05;34.48;100369.58;2004728;88;32941;-78
2021/06/27 12:00:10;;;;;;;5.97;3.85;;;;;;;27.02;34.54;100366.66;2032281;86;29399;-73
2021/06/27 12:03:16;;;;;;;7.28;6.58;;;;;;;27.05;35.95;100365.45;1999195;88;27665;-80
2021/06/27 12:06:17;;;;;;;5.22;4.10;;;;;;;27.09;35.86;100365.41;2042531;85;28779;-76
2021/06/27 12:09:35;;;;;;;3.90;3.60;;;;;;;27.16;36.01;100365.02;2048038;86;31224;-65
2021/06/27 12:12:50;;;;;;;5.78;4.00;;;;;;;27.28;36.18;100359.41;2037049;86;32955;-68
2021/06/27 12:15:54;;;;;;;;;;;;;;;27.39;35.95;100359.50;2051239;86;30066;-65
2021/06/27 12:18:59;;;;;;;5.93;3.77;;;;;;;27.44;36.61;100360.30;2055082;86;27975;-71
2021/06/27 12:22:00;;;;;;;3.62;2.65;;;;;;;27.38;35.50;100358.32;2051135;86;28761;-67
2021/06/27 12:25:05;;;;;;;8.55;4.22;;;;;;;27.36;35.82;100356.27;2047776;86;31890;-66
2021/06/27 12:28:08;;;;;;;;;;;;;;;27.30;34.74;100352.37;2056989;86;33014;-75
2021/06/27 12:31:21;;;;;;;5.97;4.28;;;;;;;27.25;35.22;100353.44;2045011;86;29323;-76
2021/06/27 12:34:23;;;;;;;6.40;4.15;;;;;;;27.21;35.04;100347.45;2048240;86;27852;-74
2021/06/27 12:37:26;;;;;;;5.28;3.83;;;;;;;27.11;35.35;100350.95;2054238;86;28672;-69
2021/06/27 12:40:29;;;;;;;3.75;3.37;;;;;;;26.98;35.05;100350.18;2038046;86;31058;-73
2021/06/27 12:43:41;;;;;;;8.28;6.92;;;;;;;26.94;35.65;100358.48;2013906;87;33564;-72
2021/06/27 12:46:49;;;;;;;4.37;3.95;;;;;;;26.94;35.31;100357.11;2048616;86;29496;-71
2021/06/27 12:49:50;;;;;;;4.20;3.90;;;;;;;26.99;35.01;100351.39;2015048;87;27557;-69
2021/06/27 12:52:52;;;;;;;4.85;3.50;;;;;;;27.07;35.53;100355.10;2051107;86;28664;-71
2021/06/27 12:55:56;;;;;;;4.08;3.75;;;;;;;27.12;35.76;100346.66;2014591;86;31175;-70
2021/06/27 12:58:58;;;;;;;3.97;3.67;;;;;;;27.22;36.01;100351.05;2044535;86;32930;-72
2021/06/27 13:02:16;;;;;;;4.78;4.03;;;;;;;27.29;35.77;100350.66;2041189;86;29296;-73
2021/06/27 13:05:19;;;;;;;4.62;4.22;;;;;;;27.35;35.18;100351.27;2041190;86;27533;-73
2021/06/27 13:08:21;;;;;;;4.20;3.67;;;;;;;27.38;35.60;100349.53;2044296;86;28860;-72
2021/06/27 13:11:23;;;;;;;4.05;3.67;;;;;;;27.42;35.61;100349.50;2046108;86;30995;-73
2021/06/27 13:14:25;;;;;;;4.25;3.83;;;;;;;27.46;35.75;100353.30;2039958;86;32929;-73
2021/06/27 13:17:27;;;;;;;4.45;4.03;;;;;;;27.46;35.81;100354.13;2041630;86;29323;-73
2021/06/27 13:20:44;;;;;;;4.55;3.52;;;;;;;27.45;35.53;100345.52;2035216;86;27573;-73
2021/06/27 13:23:47;;;;;;;10.58;9.38;;;;;;;27.43;35.32;100353.09;2038973;86;28698;-73
2021/06/27 13:26:48;;;;;;;7.30;4.55;;;;;;;27.41;35.25;100347.79;2032597;86;31258;-74
2021/06/27 13:30:12;;;;;;;5.25;4.17;;;;;;;27.44;35.17;100347.92;2029447;86;32941;-69
2021/06/27 13:33:15;;;;;;;4.47;4.08;;;;;;;27.47;35.34;100342.09;2000281;87;29412;-72
2021/06/27 13:36:32;;;;;;;3.87;3.55;;;;;;;27.47;34.38;100342.09;2005534;87;28059;-69
2021/06/27 13:39:34;;;;;;;6.45;3.90;;;;;;;27.39;34.16;100349.86;2008237;87;28872;-67
2021/06/27 13:42:35;;;;;;;6.50;4.10;;;;;;;27.30;34.67;100342.20;2016394;87;31000;-67
2021/06/27 13:45:37;;;;;;;4.65;3.90;;;;;;;27.24;34.23;100337.97;2017393;87;32964;-66
2021/06/27 13:48:39;;;;;;;4.12;3.83;;;;;;;27.14;34.40;100339.59;2009218;87;29536;-63
2021/06/27 13:51:42;;;;;;;6.65;3.72;;;;;;;27.08;34.91;100333.44;2016988;87;27625;-65
2021/06/27 13:54:43;;;;;;;3.83;3.52;;;;;;;27.01;34.52;100325.08;2021548;87;28619;-65
2021/06/27 13:57:46;;;;;;;5.33;4.15;;;;;;;26.96;35.16;100330.30;2013490;87;31684;-63
2021/06/27 14:00:48;;;;;;;4.65;3.83;;;;;;;26.91;34.51;100329.97;2006054;87;33010;-63
2021/06/27 14:03:50;;;;;;;4.12;3.72;;;;;;;26.81;34.97;100321.97;2014598;87;29318;-67
2021/06/27 14:06:52;;;;;;;4.60;3.62;;;;;;;26.76;34.87;100319.73;2017031;86;27643;-70
2021/06/27 14:09:54;;;;;;;5.05;3.77;;;;;;;26.67;34.46;100327.69;2042336;86;28738;-65
2021/06/27 14:12:56;;;;;;;4.15;3.45;;;;;;;26.61;34.82;100323.77;2049314;86;30973;-66
2021/06/27 14:15:59;;;;;;;7.05;3.55;;;;;;;26.64;35.13;100336.31;2029803;86;33247;-68
2021/06/27 14:19:02;;;;;;;3.65;3.35;;;;;;;26.66;35.17;100324.59;2038687;86;29408;-67
2021/06/27 14:22:04;;;;;;;4.50;3.95;;;;;;;26.68;34.93;100328.02;2036139;86;27499;-66